Time;durP1;ratioP1;P1;durP2;ratioP2;P2;SDS_P1;SDS_P2;PMS_P1;PMS_P2;Temp;Humidity;BMP_temperature;BMP_pressure;BME280_temperature;BME280_humidity;BME280_pressure;Samples;Min_cycle;Max_cycle;Signal;HPM_P1;HPM_P2
2021/11/28 00:00:11;;;;;;;29.17;10.70;;;;;;;5.95;86.54;95316.66;5096073;28;20024;-62
2021/11/28 00:02:37;;;;;;;34.92;13.10;;;;;;;6.02;86.36;95318.13;5096103;28;20077;-65
2021/11/28 00:05:04;;;;;;;20.00;10.82;;;;;;;6.09;86.82;95329.16;5096033;28;20031;-63
2021/11/28 00:07:48;;;;;;;35.22;14.00;;;;;;;6.16;86.73;95329.75;5095850;28;20039;-63
2021/11/28 00:12:49;;;;;;;29.10;11.65;;;;;;;6.18;86.28;95328.75;5095772;28;20024;-65
2021/11/28 00:15:18;;;;;;;41.22;14.95;;;;;;;6.21;85.94;95324.38;5095585;28;20436;-64
2021/11/28 00:17:45;;;;;;;31.48;13.30;;;;;;;6.25;86.09;95331.97;5095545;28;20024;-64
2021/11/28 00:20:13;;;;;;;26.20;13.48;;;;;;;6.27;85.86;95334.50;5095454;28;20051;-61
2021/11/28 00:22:40;;;;;;;34.90;17.90;;;;;;;6.30;85.98;95343.00;5095532;28;20032;-64
2021/11/28 00:25:11;;;;;;;24.20;12.10;;;;;;;6.31;85.42;95338.66;5095681;28;20020;-60
2021/11/28 00:27:37;;;;;;;39.92;16.30;;;;;;;6.26;85.59;95332.81;5095473;28;20036;-61
2021/11/28 00:30:05;;;;;;;33.55;14.35;;;;;;;6.25;85.63;95344.97;5095309;28;20012;-63
2021/11/28 00:32:31;;;;;;;34.13;16.05;;;;;;;6.29;85.48;95338.72;5095537;28;20024;-65
2021/11/28 00:34:56;;;;;;;32.05;13.32;;;;;;;6.37;85.07;95332.38;5095190;28;20028;-62
2021/11/28 00:37:22;;;;;;;41.95;19.73;;;;;;;6.39;85.08;95333.16;5095335;28;20024;-63
2021/11/28 00:39:47;;;;;;;33.55;12.57;;;;;;;6.36;84.87;95335.88;5095235;28;20024;-65
2021/11/28 00:42:14;;;;;;;30.98;13.27;;;;;;;6.28;84.61;95337.06;5095027;28;20016;-63
2021/11/28 00:44:40;;;;;;;30.88;13.32;;;;;;;6.32;84.52;95335.16;5094413;28;20111;-63
2021/11/28 00:47:06;;;;;;;35.58;17.17;;;;;;;6.24;84.68;95329.44;5095073;28;20016;-65
2021/11/28 00:49:34;;;;;;;33.78;18.65;;;;;;;6.25;84.98;95331.13;5095079;28;20096;-64
2021/11/28 00:51:59;;;;;;;41.83;20.00;;;;;;;6.31;85.28;95321.34;5095147;28;20081;-64
2021/11/28 00:54:27;;;;;;;33.55;14.13;;;;;;;6.36;85.10;95325.50;5094822;28;20032;-64
2021/11/28 00:56:54;;;;;;;29.35;14.18;;;;;;;6.30;84.94;95326.59;5094794;28;20047;-63
2021/11/28 00:59:19;;;;;;;28.67;16.25;;;;;;;6.31;84.87;95318.75;5094790;28;20077;-61
2021/11/28 01:01:46;;;;;;;26.65;15.38;;;;;;;6.34;84.97;95322.09;5094801;28;20413;-63
2021/11/28 01:04:12;;;;;;;34.67;18.67;;;;;;;6.36;84.65;95315.09;5094823;28;20044;-65
2021/11/28 01:06:38;;;;;;;33.92;18.05;;;;;;;6.25;85.41;95316.41;5094883;28;20020;-63
2021/11/28 01:09:07;;;;;;;32.85;16.83;;;;;;;6.36;85.70;95322.91;5094548;28;20028;-61
2021/11/28 01:11:33;;;;;;;36.10;16.73;;;;;;;6.38;84.99;95303.75;5094521;28;20023;-61
2021/11/28 01:13:59;;;;;;;37.13;18.60;;;;;;;6.31;85.80;95303.16;5094686;28;20378;-64
2021/11/28 01:16:25;;;;;;;33.75;16.52;;;;;;;6.36;85.83;95302.97;5094506;28;20032;-64
2021/11/28 01:18:51;;;;;;;88.60;59.72;;;;;;;6.34;85.63;95277.94;5094425;28;20036;-66
2021/11/28 01:21:17;;;;;;;50.10;27.30;;;;;;;6.34;85.88;95273.63;5094129;28;20478;-65
2021/11/28 01:23:43;;;;;;;117.82;82.28;;;;;;;6.42;85.92;95274.13;5094412;28;20024;-64
2021/11/28 01:26:09;;;;;;;68.40;40.83;;;;;;;6.43;85.69;95265.44;5094401;28;20013;-66
2021/11/28 01:28:34;;;;;;;40.03;25.25;;;;;;;6.47;85.58;95266.16;5094395;28;20694;-64
2021/11/28 01:31:01;;;;;;;37.03;19.50;;;;;;;6.53;86.06;95259.88;5094224;28;20032;-64
2021/11/28 01:33:27;;;;;;;40.22;21.05;;;;;;;6.54;85.82;95264.97;5094331;28;20024;-66
2021/11/28 01:35:53;;;;;;;47.78;24.88;;;;;;;6.59;85.60;95259.59;5094078;28;20028;-64
2021/11/28 01:38:20;;;;;;;35.72;21.80;;;;;;;6.61;85.30;95264.72;5094118;28;20485;-64
2021/11/28 01:40:47;;;;;;;34.42;18.88;;;;;;;6.64;85.36;95264.59;5094270;28;20413;-62
2021/11/28 01:43:14;;;;;;;34.33;18.65;;;;;;;6.61;85.35;95259.53;5094028;28;20032;-62
2021/11/28 01:45:41;;;;;;;43.45;18.92;;;;;;;6.64;85.26;95262.84;5093840;28;20359;-62
2021/11/28 01:48:09;;;;;;;35.30;18.92;;;;;;;6.67;85.11;95254.91;5093927;28;20628;-64
2021/11/28 01:50:37;;;;;;;29.48;16.77;;;;;;;6.68;84.58;95251.41;5093927;28;20030;-62
2021/11/28 01:53:07;;;;;;;33.88;17.42;;;;;;;6.69;84.25;95247.88;5092584;28;20133;-63
2021/11/28 01:55:34;;;;;;;35.08;17.98;;;;;;;6.69;84.38;95245.28;5093682;28;20067;-64
2021/11/28 01:58:02;;;;;;;30.33;17.23;;;;;;;6.64;84.41;95236.84;5093687;28;20016;-66
2021/11/28 02:00:32;;;;;;;33.92;17.85;;;;;;;6.63;84.57;95239.53;5093812;28;20031;-63
2021/11/28 02:02:58;;;;;;;31.63;17.33;;;;;;;6.63;84.24;95239.53;5093717;28;20012;-66
2021/11/28 02:05:25;;;;;;;35.13;16.98;;;;;;;6.64;84.23;95239.47;5093889;28;20081;-65
2021/11/28 02:07:51;;;;;;;33.67;15.82;;;;;;;6.64;83.93;95236.84;5093512;28;20028;-62
2021/11/28 02:10:18;;;;;;;30.52;15.45;;;;;;;6.67;83.43;95238.47;5093547;28;20023;-66
2021/11/28 02:12:46;;;;;;;29.35;16.65;;;;;;;6.64;83.88;95233.41;5093563;28;20017;-66
2021/11/28 02:15:13;;;;;;;31.95;16.83;;;;;;;6.62;83.76;95230.03;5093563;28;20103;-62
2021/11/28 02:17:39;;;;;;;28.40;16.95;;;;;;;6.52;83.69;95232.19;5093626;28;20061;-64
2021/11/28 02:20:07;;;;;;;40.22;18.35;;;;;;;6.45;83.84;95224.63;5093093;28;20482;-66
2021/11/28 02:22:33;;;;;;;36.10;17.92;;;;;;;6.50;84.22;95226.22;5093600;28;20449;-65
2021/11/28 02:25:03;;;;;;;34.30;17.25;;;;;;;6.52;84.03;95226.97;5093445;28;20556;-64
2021/11/28 02:27:29;;;;;;;31.02;12.52;;;;;;;6.52;84.27;95217.44;5093407;28;20514;-62
2021/11/28 02:29:54;;;;;;;37.70;17.15;;;;;;;6.52;83.79;95222.63;5093308;28;20062;-65
2021/11/28 02:32:20;;;;;;;28.92;16.30;;;;;;;6.46;83.80;95217.69;5093347;28;20028;-64
2021/11/28 02:34:45;;;;;;;34.50;17.17;;;;;;;6.44;83.88;95206.53;5093127;28;20012;-64
2021/11/28 02:37:11;;;;;;;35.47;18.27;;;;;;;6.43;83.96;95204.84;5093141;28;20031;-65
2021/11/28 02:39:37;;;;;;;31.00;16.65;;;;;;;6.44;84.25;95209.13;5093302;28;20073;-61
2021/11/28 02:42:03;;;;;;;33.10;16.23;;;;;;;6.45;83.83;95219.44;5093316;28;20089;-63
2021/11/28 02:44:32;;;;;;;34.97;17.25;;;;;;;6.49;83.57;95221.91;5093088;28;20061;-62
2021/11/28 02:46:58;;;;;;;36.78;16.27;;;;;;;6.52;83.59;95219.19;5093202;28;20050;-65
2021/11/28 02:49:24;;;;;;;29.05;16.23;;;;;;;6.49;83.88;95221.91;5093077;28;20012;-65
2021/11/28 02:51:50;;;;;;;34.72;15.55;;;;;;;6.49;83.88;95225.38;5093241;28;20182;-64
2021/11/28 02:54:16;;;;;;;32.58;15.38;;;;;;;6.49;83.68;95224.50;5093122;28;20115;-62
2021/11/28 02:56:43;;;;;;;30.90;16.38;;;;;;;6.43;83.82;95218.69;5092835;28;20031;-62
2021/11/28 02:59:10;;;;;;;34.22;16.75;;;;;;;6.44;84.16;95216.91;5093167;28;20081;-62
2021/11/28 03:01:35;;;;;;;36.33;17.52;;;;;;;6.45;84.50;95221.22;5093090;28;20020;-62
2021/11/28 03:04:01;;;;;;;40.70;18.05;;;;;;;6.52;84.92;95220.03;5093040;28;20466;-62
2021/11/28 03:06:27;;;;;;;34.03;17.10;;;;;;;6.58;84.81;95218.94;5092985;28;20103;-64
2021/11/28 03:08:52;;;;;;;27.83;15.82;;;;;;;6.61;84.61;95226.59;5095159;28;20482;-64
2021/11/28 03:11:19;;;;;;;30.17;15.48;;;;;;;6.62;84.38;95228.28;5097025;28;20024;-62
2021/11/28 03:13:47;;;;;;;36.83;17.08;;;;;;;6.65;83.88;95225.53;5096834;28;20069;-64
2021/11/28 03:16:15;;;;;;;33.97;17.48;;;;;;;6.65;84.02;95241.13;5096739;28;20024;-62
2021/11/28 03:18:42;;;;;;;42.80;20.70;;;;;;;6.65;83.99;95232.53;5096843;28;20111;-66
2021/11/28 03:21:11;;;;;;;41.65;20.75;;;;;;;6.66;84.04;95231.59;5096499;28;20067;-64
2021/11/28 03:23:39;;;;;;;45.90;22.00;;;;;;;6.62;84.19;95232.66;5096733;28;20032;-61
2021/11/28 03:26:10;;;;;;;42.08;20.48;;;;;;;6.53;84.40;95226.91;5096687;28;20099;-62
2021/11/28 03:28:39;;;;;;;37.10;19.98;;;;;;;6.53;84.52;95226.91;5096672;28;20458;-65
2021/11/28 03:31:05;;;;;;;40.20;21.40;;;;;;;6.56;84.54;95220.75;5096509;28;20482;-64
2021/11/28 03:33:31;;;;;;;39.88;20.67;;;;;;;6.57;84.71;95212.88;5096472;28;20020;-63
2021/11/28 03:35:57;;;;;;;40.15;20.73;;;;;;;6.63;84.75;95213.53;5096364;28;20024;-62
2021/11/28 03:38:23;;;;;;;48.45;21.20;;;;;;;6.65;84.53;95203.94;5096294;28;20031;-66
2021/11/28 03:40:48;;;;;;;39.95;20.23;;;;;;;6.65;84.20;95203.94;5096537;28;20483;-63
2021/11/28 03:43:14;;;;;;;40.85;20.45;;;;;;;6.63;84.25;95198.81;5096237;28;20027;-63
2021/11/28 03:45:40;;;;;;;35.85;18.60;;;;;;;6.62;84.06;95183.28;5096306;28;20063;-66
2021/11/28 03:48:05;;;;;;;41.78;20.10;;;;;;;6.63;83.93;95177.16;5096278;28;20020;-64
2021/11/28 03:50:31;;;;;;;37.03;19.23;;;;;;;6.62;84.11;95168.50;5096245;28;20036;-65
2021/11/28 03:52:57;;;;;;;37.88;19.30;;;;;;;6.54;84.59;95160.22;5096319;28;20378;-62
2021/11/28 03:55:24;;;;;;;36.72;18.58;;;;;;;6.57;83.90;95170.47;5095943;28;20412;-63
2021/11/28 03:57:50;;;;;;;32.00;18.02;;;;;;;6.53;83.81;95167.16;5096029;28;20024;-64
2021/11/28 04:00:16;;;;;;;29.95;17.05;;;;;;;6.49;83.46;95156.97;5095957;28;20020;-64
2021/11/28 04:02:42;;;;;;;33.05;16.92;;;;;;;6.50;83.09;95163.88;5096047;28;20026;-63
2021/11/28 04:05:09;;;;;;;34.30;16.40;;;;;;;6.48;82.92;95156.16;5096054;28;20439;-63
2021/11/28 04:07:35;;;;;;;25.30;14.18;;;;;;;6.47;82.88;95169.19;5096064;28;20064;-63
2021/11/28 04:10:01;;;;;;;35.60;15.52;;;;;;;6.45;82.82;95161.47;5095878;28;20024;-65
2021/11/28 04:12:27;;;;;;;29.27;14.65;;;;;;;6.41;83.17;95159.94;5095764;28;20165;-66
2021/11/28 04:14:57;;;;;;;30.33;14.80;;;;;;;6.32;83.22;95150.75;5095688;28;20066;-62
2021/11/28 04:17:24;;;;;;;39.85;16.75;;;;;;;6.25;84.03;95160.56;5095670;28;20024;-63
2021/11/28 04:19:51;;;;;;;25.23;14.43;;;;;;;6.22;82.87;95171.09;5094158;28;20031;-62
2021/11/28 04:22:16;;;;;;;42.10;18.67;;;;;;;6.18;82.64;95166.94;5095729;28;20027;-64
2021/11/28 04:24:42;;;;;;;54.00;21.15;;;;;;;6.18;82.70;95165.16;5095557;28;20020;-62
2021/11/28 04:27:08;;;;;;;54.08;20.00;;;;;;;6.19;82.92;95168.63;5095595;28;20056;-65
2021/11/28 04:29:33;;;;;;;46.40;21.38;;;;;;;6.14;82.83;95166.22;5095488;28;20470;-62
2021/11/28 04:31:59;;;;;;;43.63;18.70;;;;;;;6.13;82.38;95163.69;5095463;28;20021;-62
2021/11/28 04:34:24;;;;;;;39.20;17.52;;;;;;;6.04;82.92;95175.31;5094166;28;20027;-62
2021/11/28 04:36:50;;;;;;;41.13;17.95;;;;;;;6.02;82.66;95182.28;5095350;28;20122;-66
2021/11/28 04:39:16;;;;;;;36.40;14.70;;;;;;;6.01;82.53;95183.19;5095244;28;20055;-65
2021/11/28 04:41:42;;;;;;;20.13;9.60;;;;;;;6.02;81.81;95193.50;5095327;28;20505;-64
2021/11/28 04:44:07;;;;;;;23.77;10.50;;;;;;;5.91;81.95;95196.56;5095254;28;20016;-63
2021/11/28 04:46:33;;;;;;;23.27;10.13;;;;;;;5.87;83.18;95184.59;5095289;28;20577;-62
2021/11/28 04:49:02;;;;;;;23.33;9.45;;;;;;;5.87;83.19;95181.19;5095159;28;20069;-64
2021/11/28 04:51:27;;;;;;;14.55;8.95;;;;;;;5.91;82.78;95193.13;5095067;28;20039;-63
2021/11/28 04:53:53;;;;;;;15.48;9.00;;;;;;;5.86;82.42;95203.69;5094912;28;20028;-64
2021/11/28 04:56:18;;;;;;;24.00;10.18;;;;;;;5.85;82.08;95209.78;5094748;28;20133;-64
2021/11/28 04:58:44;;;;;;;109.35;93.93;;;;;;;5.76;82.02;95217.94;5095021;28;20470;-62
2021/11/28 05:01:10;;;;;;;79.13;60.42;;;;;;;5.74;82.10;95230.97;5094915;28;20413;-66
2021/11/28 05:03:35;;;;;;;55.47;41.00;;;;;;;5.75;82.37;95234.41;5094745;28;20539;-62
2021/11/28 05:06:01;;;;;;;47.08;23.55;;;;;;;5.73;82.32;95249.19;5094642;28;20028;-61
2021/11/28 05:08:27;;;;;;;32.13;15.82;;;;;;;5.68;82.40;95265.78;5094768;28;20020;-63
2021/11/28 05:10:52;;;;;;;25.80;12.52;;;;;;;5.66;82.17;95275.38;5094738;28;20016;-62
2021/11/28 05:13:18;;;;;;;32.70;15.82;;;;;;;5.67;82.03;95292.66;5094697;28;20073;-62
2021/11/28 05:15:43;;;;;;;18.40;11.13;;;;;;;5.67;81.64;95300.44;5094465;28;20489;-63
2021/11/28 05:18:09;;;;;;;12.10;8.25;;;;;;;5.61;81.36;95284.25;5094539;28;20016;-64
2021/11/28 05:20:35;;;;;;;22.90;10.63;;;;;;;5.44;81.49;95301.28;5094362;28;20040;-64
2021/11/28 05:23:00;;;;;;;32.38;13.77;;;;;;;5.35;82.03;95306.81;5094593;28;20035;-65
2021/11/28 05:25:26;;;;;;;121.45;17.23;;;;;;;5.40;82.39;95320.47;5094476;28;20494;-66
2021/11/28 05:27:52;;;;;;;40.55;17.67;;;;;;;5.44;82.72;95347.97;5094348;28;20482;-64
2021/11/28 05:30:18;;;;;;;15.75;7.80;;;;;;;5.44;81.65;95355.75;5094146;28;20062;-65
2021/11/28 05:32:44;;;;;;;24.60;9.05;;;;;;;5.38;81.29;95351.66;5093899;28;20028;-63
2021/11/28 05:35:10;;;;;;;54.30;15.27;;;;;;;5.29;82.27;95342.44;5094183;28;20351;-65
2021/11/28 05:37:35;;;;;;;146.15;25.42;;;;;;;5.24;82.73;95333.16;5094197;28;20027;-64
2021/11/28 05:40:03;;;;;;;286.20;56.70;;;;;;;5.27;84.62;95339.06;5094200;28;20467;-64
2021/11/28 05:42:28;;;;;;;207.00;39.67;;;;;;;5.27;85.33;95331.28;5093944;28;20482;-62
2021/11/28 05:44:54;;;;;;;86.65;17.67;;;;;;;5.22;84.92;95319.38;5093895;28;20055;-62
2021/11/28 05:47:20;;;;;;;134.93;15.60;;;;;;;5.20;84.72;95326.41;5094078;28;20028;-63
2021/11/28 05:49:46;;;;;;;110.82;15.35;;;;;;;5.22;84.17;95322.84;5094020;28;20028;-66
2021/11/28 05:52:11;;;;;;;353.52;25.65;;;;;;;5.21;86.20;95321.13;5093811;28;20020;-63
2021/11/28 05:54:37;;;;;;;334.83;22.70;;;;;;;5.26;86.13;95319.22;5093886;28;20077;-64
2021/11/28 05:57:03;;;;;;;44.03;14.93;;;;;;;5.32;85.93;95323.34;5093787;28;20024;-62
2021/11/28 05:59:29;;;;;;;55.33;14.27;;;;;;;5.40;85.56;95316.13;5093845;28;20035;-64
2021/11/28 06:01:55;;;;;;;58.60;12.88;;;;;;;5.48;85.38;95327.97;5093740;28;20028;-61
2021/11/28 06:04:21;;;;;;;41.47;12.75;;;;;;;5.61;85.43;95324.00;5093674;28;20035;-61
2021/11/28 06:06:47;;;;;;;30.58;12.75;;;;;;;5.96;85.94;95322.72;5093629;28;20048;-66
2021/11/28 06:09:13;;;;;;;23.45;11.27;;;;;;;6.28;84.01;95318.88;5093892;28;20052;-65
2021/11/28 06:11:39;;;;;;;19.73;11.15;;;;;;;6.44;83.22;95324.28;5093770;28;20020;-65
2021/11/28 06:14:04;;;;;;;14.93;9.30;;;;;;;6.79;82.32;95321.13;5093694;28;20057;-64
2021/11/28 06:16:30;;;;;;;12.70;7.78;;;;;;;7.43;79.26;95318.38;5093424;28;20028;-63
2021/11/28 06:18:56;;;;;;;23.55;8.18;;;;;;;8.14;73.47;95322.97;5093392;28;20020;-61
2021/11/28 06:21:21;;;;;;;9.27;7.15;;;;;;;8.98;70.66;95313.69;5093184;28;20044;-64
2021/11/28 06:23:47;;;;;;;7.70;6.13;;;;;;;10.09;68.18;95300.88;5093434;28;20031;-62
2021/11/28 06:26:13;;;;;;;11.18;5.80;;;;;;;11.27;64.17;95291.56;5093483;28;20020;-62
2021/11/28 06:28:38;;;;;;;11.93;6.32;;;;;;;12.22;60.63;95291.00;5093322;28;20026;-65
2021/11/28 06:31:04;;;;;;;7.57;5.40;;;;;;;12.84;58.91;95286.94;5093361;28;20351;-63
2021/11/28 06:33:30;;;;;;;5.70;4.68;;;;;;;13.25;57.10;95303.44;5093288;28;20012;-63
2021/11/28 06:35:56;;;;;;;6.93;4.45;;;;;;;13.76;56.78;95304.38;5093246;28;20056;-64
2021/11/28 06:38:22;;;;;;;5.70;4.32;;;;;;;14.52;54.95;95311.28;5093351;28;20114;-63
2021/11/28 06:40:48;;;;;;;6.25;5.10;;;;;;;15.15;53.00;95319.88;5093167;28;20490;-63
2021/11/28 06:43:14;;;;;;;5.20;4.20;;;;;;;15.74;50.30;95320.63;5092417;28;20016;-64
2021/11/28 06:45:39;;;;;;;6.35;4.82;;;;;;;15.51;50.52;95327.72;5093140;28;20020;-62
2021/11/28 06:48:06;;;;;;;4.88;3.67;;;;;;;14.31;51.02;95324.22;5093021;28;20027;-61
2021/11/28 06:50:31;;;;;;;5.85;4.55;;;;;;;13.44;53.47;95336.34;5093176;28;20036;-61
2021/11/28 06:52:57;;;;;;;4.93;4.40;;;;;;;12.77;55.49;95341.59;5093098;28;20131;-63
2021/11/28 06:55:23;;;;;;;6.57;5.20;;;;;;;12.21;57.40;95357.47;5092932;28;20027;-65
2021/11/28 06:57:49;;;;;;;10.18;7.25;;;;;;;11.69;59.30;95358.00;5093162;28;20020;-62
2021/11/28 07:00:17;;;;;;;13.35;10.65;;;;;;;11.36;61.18;95356.47;5093160;28;20095;-66
2021/11/28 07:02:42;;;;;;;7.22;5.32;;;;;;;11.14;61.79;95349.06;5092994;28;20089;-66
2021/11/28 07:05:08;;;;;;;7.60;6.07;;;;;;;10.92;62.38;95340.69;5092944;28;20503;-62
2021/11/28 07:07:33;;;;;;;6.65;5.03;;;;;;;11.25;62.78;95336.16;5092938;28;20020;-65
2021/11/28 07:09:59;;;;;;;5.45;4.63;;;;;;;11.97;60.54;95337.06;5093061;28;20026;-66
2021/11/28 07:12:24;;;;;;;8.98;6.70;;;;;;;12.55;59.13;95341.34;5092980;28;20344;-65
2021/11/28 07:14:50;;;;;;;9.63;6.35;;;;;;;13.52;57.78;95336.66;5092854;28;20050;-62
2021/11/28 07:17:16;;;;;;;8.77;6.57;;;;;;;14.57;55.27;95337.22;5092801;28;20024;-67
2021/11/28 07:19:42;;;;;;;9.63;6.35;;;;;;;15.35;53.71;95330.69;5092610;28;20085;-66
2021/11/28 07:22:08;;;;;;;9.27;6.80;;;;;;;16.31;51.84;95332.13;5092853;28;20036;-67
2021/11/28 07:24:33;;;;;;;9.38;6.35;;;;;;;17.40;49.17;95336.50;5092874;28;20103;-63
2021/11/28 07:26:59;;;;;;;9.38;6.72;;;;;;;18.51;47.01;95353.50;5092735;28;20012;-66
2021/11/28 07:29:25;;;;;;;7.35;5.22;;;;;;;19.38;45.31;95356.28;5092624;28;20497;-66
2021/11/28 07:31:51;;;;;;;9.32;5.43;;;;;;;19.65;44.32;95359.16;5092677;28;20081;-66
2021/11/28 07:34:16;;;;;;;6.35;5.38;;;;;;;19.25;44.79;95369.84;5092884;28;20016;-63
2021/11/28 07:36:42;;;;;;;9.40;7.45;;;;;;;19.12;45.00;95361.34;5092591;28;20755;-65
2021/11/28 07:39:08;;;;;;;8.80;7.88;;;;;;;19.52;44.86;95356.81;5092799;28;20055;-63
2021/11/28 07:41:38;;;;;;;10.38;8.23;;;;;;;20.23;43.68;95359.97;5092633;28;20029;-64
2021/11/28 07:44:04;;;;;;;12.07;9.45;;;;;;;21.19;41.78;95359.63;5092558;28;20070;-65
2021/11/28 07:46:30;;;;;;;12.05;9.52;;;;;;;21.90;40.37;95362.28;5092515;28;20021;-64
2021/11/28 07:48:56;;;;;;;11.93;8.43;;;;;;;21.83;39.06;95353.25;5092511;28;20012;-63
2021/11/28 07:51:22;;;;;;;10.55;8.10;;;;;;;21.89;39.54;95357.13;5092736;28;20367;-63
2021/11/28 07:53:49;;;;;;;11.32;7.97;;;;;;;22.27;39.24;95368.28;5092958;28;20428;-68
2021/11/28 07:56:15;;;;;;;9.70;7.85;;;;;;;23.04;38.01;95385.16;5095973;28;20036;-65
2021/11/28 07:58:40;;;;;;;9.70;7.10;;;;;;;23.38;37.17;95374.56;5096236;28;20489;-68
2021/11/28 08:01:06;;;;;;;10.73;8.38;;;;;;;23.31;37.09;95388.53;5096085;28;20143;-66
2021/11/28 08:03:32;;;;;;;9.55;7.57;;;;;;;23.17;37.99;95411.34;5096152;28;20020;-62
2021/11/28 08:05:59;;;;;;;10.60;7.65;;;;;;;23.15;37.47;95409.84;5095986;28;20020;-67
2021/11/28 08:08:31;;;;;;;8.95;7.13;;;;;;;22.98;37.72;95407.16;5095841;28;20053;-62
2021/11/28 08:10:57;;;;;;;10.65;7.97;;;;;;;22.56;38.89;95408.84;5095760;28;20032;-65
2021/11/28 08:13:23;;;;;;;10.80;7.55;;;;;;;22.13;39.06;95415.00;5095966;28;20038;-65
2021/11/28 08:15:49;;;;;;;13.10;7.50;;;;;;;21.01;40.96;95408.28;5095620;28;20016;-63
2021/11/28 08:18:15;;;;;;;13.25;8.32;;;;;;;20.29;42.81;95385.91;5095707;28;20032;-65
2021/11/28 08:20:41;;;;;;;13.70;8.45;;;;;;;19.66;44.72;95371.47;5095450;28;20431;-63
2021/11/28 08:23:07;;;;;;;13.05;8.02;;;;;;;19.10;46.38;95384.50;5095555;28;20146;-63
2021/11/28 08:25:32;;;;;;;10.77;7.68;;;;;;;18.76;47.02;95388.38;5095555;28;20027;-67
2021/11/28 08:27:58;;;;;;;11.40;8.68;;;;;;;18.51;47.70;95406.44;5095591;28;20111;-62
2021/11/28 08:30:24;;;;;;;12.63;7.72;;;;;;;17.93;49.41;95406.03;5095585;28;20109;-64
2021/11/28 08:32:50;;;;;;;9.23;7.25;;;;;;;17.39;50.74;95398.22;5095328;28;20028;-66
2021/11/28 08:35:18;;;;;;;9.98;7.60;;;;;;;16.79;52.64;95399.53;5095245;28;20026;-66
2021/11/28 08:37:45;;;;;;;11.65;7.10;;;;;;;16.48;53.61;95407.28;5095323;28;20028;-64
2021/11/28 08:40:19;;;;;;;11.48;7.88;;;;;;;16.07;55.79;95402.53;5095255;28;20416;-64
2021/11/28 08:42:45;;;;;;;13.27;7.15;;;;;;;15.69;56.45;95393.13;5095313;28;20462;-67
2021/11/28 08:45:13;;;;;;;9.15;6.93;;;;;;;15.41;57.33;95382.91;5095248;28;20042;-66
2021/11/28 08:47:38;;;;;;;9.90;7.45;;;;;;;15.26;57.87;95377.03;5095040;28;20028;-61
2021/11/28 08:50:06;;;;;;;15.38;7.40;;;;;;;15.14;58.19;95382.25;5095082;28;20020;-66
2021/11/28 08:52:32;;;;;;;12.20;6.65;;;;;;;15.08;58.26;95384.50;5095213;28;20016;-62
2021/11/28 08:54:58;;;;;;;11.43;7.22;;;;;;;14.93;59.22;95383.84;5095148;28;20550;-62
2021/11/28 08:57:24;;;;;;;11.52;7.65;;;;;;;14.89;60.14;95389.34;5094862;28;20031;-62
2021/11/28 08:59:49;;;;;;;12.02;7.07;;;;;;;14.96;61.33;95383.63;5094819;28;20024;-64
2021/11/28 09:02:17;;;;;;;10.18;6.20;;;;;;;14.81;62.03;95385.59;5094816;28;20020;-63
2021/11/28 09:04:43;;;;;;;16.15;8.73;;;;;;;14.70;62.32;95384.56;5094771;28;20030;-65
2021/11/28 09:07:09;;;;;;;21.27;9.02;;;;;;;14.73;62.64;95383.50;5094079;28;20016;-62
2021/11/28 09:09:35;;;;;;;14.07;8.30;;;;;;;14.53;63.15;95388.41;5094636;28;20530;-64
2021/11/28 09:12:03;;;;;;;15.68;8.25;;;;;;;14.43;63.81;95390.03;5094741;28;20024;-63
2021/11/28 09:14:29;;;;;;;12.38;7.55;;;;;;;14.01;65.72;95394.66;5094690;28;20027;-62
2021/11/28 09:16:54;;;;;;;13.88;8.05;;;;;;;13.87;66.63;95400.00;5093247;28;20032;-61
2021/11/28 09:19:33;;;;;;;15.20;7.82;;;;;;;13.77;67.04;95403.31;5094644;28;20032;-63
2021/11/28 09:22:01;;;;;;;15.68;8.18;;;;;;;13.76;66.79;95400.78;5094361;28;20048;-64
2021/11/28 09:24:36;;;;;;;14.57;8.35;;;;;;;13.77;67.29;95402.47;5094300;28;20489;-64
2021/11/28 09:27:13;;;;;;;21.08;9.07;;;;;;;13.82;67.14;95402.13;5094508;28;20115;-64
2021/11/28 09:29:41;;;;;;;13.55;8.40;;;;;;;13.85;67.06;95404.56;5094512;28;20032;-63
2021/11/28 09:32:09;;;;;;;16.08;9.63;;;;;;;13.90;67.07;95411.16;5094192;28;20021;-64
2021/11/28 09:34:35;;;;;;;13.20;7.72;;;;;;;13.95;67.02;95408.22;5094279;28;20386;-64
2021/11/28 09:37:01;;;;;;;13.98;7.35;;;;;;;13.87;67.37;95406.13;5094166;28;20109;-63
2021/11/28 09:39:27;;;;;;;17.30;6.88;;;;;;;13.81;66.80;95413.63;5094024;28;20476;-66
2021/11/28 09:42:00;;;;;;;10.27;6.88;;;;;;;13.87;66.91;95418.41;5094154;28;20020;-65
2021/11/28 09:44:28;;;;;;;13.05;7.03;;;;;;;13.64;67.80;95418.22;5094252;28;20378;-65
2021/11/28 09:46:55;;;;;;;12.20;6.53;;;;;;;13.61;68.38;95408.75;5094015;28;20466;-62
2021/11/28 09:49:27;;;;;;;15.32;7.88;;;;;;;13.48;68.76;95418.38;5093843;28;20067;-65
2021/11/28 09:52:01;;;;;;;12.75;7.00;;;;;;;13.46;68.94;95410.59;5093954;28;20523;-64
2021/11/28 09:54:27;;;;;;;12.35;6.18;;;;;;;13.49;68.98;95422.72;5093908;28;20024;-64
2021/11/28 09:56:53;;;;;;;12.50;7.30;;;;;;;13.49;68.93;95417.47;5093905;28;20484;-63
2021/11/28 09:59:19;;;;;;;9.05;6.82;;;;;;;13.52;68.93;95417.28;5092555;28;20028;-61
2021/11/28 10:01:45;;;;;;;14.82;7.60;;;;;;;13.58;69.24;95403.69;5093795;28;20579;-65
2021/11/28 10:04:11;;;;;;;13.95;6.78;;;;;;;13.50;69.44;95403.41;5093696;28;20032;-61
2021/11/28 10:06:38;;;;;;;16.20;7.32;;;;;;;13.47;69.43;95404.41;5093815;28;20024;-63
2021/11/28 10:09:05;;;;;;;41.25;26.02;;;;;;;13.49;69.38;95388.56;5093813;28;20020;-61
2021/11/28 10:11:40;;;;;;;21.40;11.48;;;;;;;13.65;69.70;95380.50;5093664;28;20047;-63
2021/11/28 10:14:11;;;;;;;11.75;7.57;;;;;;;13.76;69.04;95374.50;5093670;28;20016;-63
2021/11/28 10:16:38;;;;;;;13.88;7.70;;;;;;;13.88;68.23;95384.16;5093641;28;20028;-65
2021/11/28 10:19:07;;;;;;;14.88;6.55;;;;;;;13.97;68.37;95380.03;5092686;28;20035;-61
2021/11/28 10:21:33;;;;;;;9.88;6.78;;;;;;;14.06;68.81;95380.34;5093253;28;20044;-62
2021/11/28 10:24:12;;;;;;;13.52;7.55;;;;;;;14.09;68.83;95380.13;5092077;28;20028;-65
2021/11/28 10:26:57;;;;;;;12.65;6.78;;;;;;;14.27;67.83;95368.28;5093459;28;20109;-67
2021/11/28 10:29:28;;;;;;;13.15;6.65;;;;;;;14.25;66.47;95380.72;5093327;28;20401;-65
2021/11/28 10:31:57;;;;;;;14.00;7.30;;;;;;;14.23;66.73;95381.75;5093407;28;20028;-62
2021/11/28 10:34:34;;;;;;;19.25;7.03;;;;;;;14.21;67.01;95387.13;5093241;28;20056;-64
2021/11/28 10:37:12;;;;;;;14.35;7.38;;;;;;;14.17;66.20;95372.53;5093195;28;20197;-62
2021/11/28 10:39:49;;;;;;;11.68;6.65;;;;;;;14.05;66.72;95362.91;5093266;28;20032;-63
2021/11/28 10:42:23;;;;;;;11.35;7.68;;;;;;;13.80;67.32;95354.94;5093216;28;20023;-66
2021/11/28 10:45:03;;;;;;;10.60;6.97;;;;;;;13.84;67.53;95361.66;5093209;28;20479;-63
2021/11/28 10:47:48;;;;;;;12.10;8.13;;;;;;;13.97;67.19;95360.81;5093220;28;20059;-61
2021/11/28 10:50:16;;;;;;;14.65;6.60;;;;;;;14.14;67.16;95367.47;5093119;28;20028;-64
2021/11/28 10:52:46;;;;;;;11.70;6.47;;;;;;;14.14;65.31;95362.22;5093085;28;20085;-63
2021/11/28 10:55:22;;;;;;;16.27;7.13;;;;;;;14.23;66.07;95366.84;5093002;28;20097;-63
2021/11/28 10:58:07;;;;;;;11.90;6.28;;;;;;;14.20;65.14;95372.31;5093018;28;20126;-64
2021/11/28 11:00:58;;;;;;;10.57;6.90;;;;;;;14.14;65.74;95365.69;5093028;28;20024;-67
2021/11/28 11:03:32;;;;;;;10.57;6.47;;;;;;;14.17;65.96;95361.19;5085684;28;20032;-66
2021/11/28 11:06:18;;;;;;;12.18;6.65;;;;;;;14.10;66.11;95345.84;5092921;28;20028;-66
2021/11/28 11:08:46;;;;;;;13.38;6.43;;;;;;;14.12;66.36;95349.19;5092930;28;20478;-60
2021/11/28 11:11:15;;;;;;;12.38;6.78;;;;;;;14.13;66.59;95348.25;5092960;28;20107;-63
2021/11/28 11:13:58;;;;;;;7.88;5.55;;;;;;;14.22;65.96;95341.50;5093082;28;20103;-65
2021/11/28 11:16:41;;;;;;;11.20;6.90;;;;;;;14.31;65.86;95344.41;5092632;28;20107;-62
2021/11/28 11:19:38;;;;;;;22.83;13.23;;;;;;;14.34;65.89;95342.41;5091727;28;20501;-65
2021/11/28 11:22:19;;;;;;;14.18;7.68;;;;;;;14.40;65.20;95346.38;5092749;28;20052;-67
2021/11/28 11:24:51;;;;;;;13.20;6.78;;;;;;;14.40;65.37;95341.09;5092901;28;20125;-66
2021/11/28 11:27:33;;;;;;;11.90;7.35;;;;;;;14.26;65.76;95340.31;5092747;28;20028;-60
2021/11/28 11:30:03;;;;;;;12.05;6.97;;;;;;;14.22;65.75;95330.97;5095093;28;20054;-67